sensor_id;sensor_type;location;lat;lon;timestamp;pressure;altitude;pressure_sealevel;temperature;humidity
85140;BME280;75501;52.586;13.284;2024-01-30T00:01:09;102497.03;;;3.77;64.99
85140;BME280;75501;52.586;13.284;2024-01-30T00:03:37;102493.50;;;3.76;64.73
85140;BME280;75501;52.586;13.284;2024-01-30T00:06:06;102494.97;;;3.72;64.85
85140;BME280;75501;52.586;13.284;2024-01-30T00:08:35;102488.78;;;3.72;64.70
85140;BME280;75501;52.586;13.284;2024-01-30T00:11:03;102490.25;;;3.68;65.04
85140;BME280;75501;52.586;13.284;2024-01-30T00:13:31;102498.91;;;3.70;64.95
85140;BME280;75501;52.586;13.284;2024-01-30T00:16:00;102495.84;;;3.60;65.08
85140;BME280;75501;52.586;13.284;2024-01-30T00:18:29;102500.38;;;3.66;65.22
85140;BME280;75501;52.586;13.284;2024-01-30T00:20:58;102501.19;;;3.66;65.02
85140;BME280;75501;52.586;13.284;2024-01-30T00:23:26;102490.00;;;3.69;64.93
85140;BME280;75501;52.586;13.284;2024-01-30T00:25:54;102499.13;;;3.75;64.90
85140;BME280;75501;52.586;13.284;2024-01-30T00:28:22;102496.66;;;3.67;65.27
85140;BME280;75501;52.586;13.284;2024-01-30T00:30:50;102493.16;;;3.60;65.40
85140;BME280;75501;52.586;13.284;2024-01-30T00:33:18;102490.06;;;3.56;65.42
85140;BME280;75501;52.586;13.284;2024-01-30T00:35:48;102493.56;;;3.57;65.41
85140;BME280;75501;52.586;13.284;2024-01-30T00:38:15;102485.94;;;3.54;65.41
85140;BME280;75501;52.586;13.284;2024-01-30T00:40:44;102494.59;;;3.62;65.09
85140;BME280;75501;52.586;13.284;2024-01-30T00:43:12;102484.47;;;3.58;65.19
85140;BME280;75501;52.586;13.284;2024-01-30T00:45:40;102478.06;;;3.52;65.30
85140;BME280;75501;52.586;13.284;2024-01-30T00:48:08;102477.63;;;3.55;65.56
85140;BME280;75501;52.586;13.284;2024-01-30T00:50:36;102484.28;;;3.53;65.36
85140;BME280;75501;52.586;13.284;2024-01-30T00:53:06;102484.88;;;3.55;65.60
85140;BME280;75501;52.586;13.284;2024-01-30T00:55:34;102488.84;;;3.45;65.65
85140;BME280;75501;52.586;13.284;2024-01-30T00:58:03;102480.16;;;3.43;65.72
85140;BME280;75501;52.586;13.284;2024-01-30T01:00:32;102484.72;;;3.43;65.87
85140;BME280;75501;52.586;13.284;2024-01-30T01:03:00;102483.91;;;3.36;65.86
85140;BME280;75501;52.586;13.284;2024-01-30T01:05:29;102487.22;;;3.31;66.01
85140;BME280;75501;52.586;13.284;2024-01-30T01:07:57;102490.13;;;3.36;65.56
85140;BME280;75501;52.586;13.284;2024-01-30T01:10:26;102491.75;;;3.37;65.85
85140;BME280;75501;52.586;13.284;2024-01-30T01:12:55;102492.81;;;3.36;65.56
85140;BME280;75501;52.586;13.284;2024-01-30T01:15:24;102488.47;;;3.22;66.11
85140;BME280;75501;52.586;13.284;2024-01-30T01:17:55;102495.47;;;3.30;66.15
85140;BME280;75501;52.586;13.284;2024-01-30T01:20:24;102492.78;;;3.30;66.16
85140;BME280;75501;52.586;13.284;2024-01-30T01:22:52;102488.88;;;3.32;66.03
85140;BME280;75501;52.586;13.284;2024-01-30T01:25:20;102493.84;;;3.29;66.37
85140;BME280;75501;52.586;13.284;2024-01-30T01:27:50;102485.16;;;3.20;66.17
85140;BME280;75501;52.586;13.284;2024-01-30T01:30:19;102483.69;;;3.24;66.02
85140;BME280;75501;52.586;13.284;2024-01-30T01:32:48;102482.25;;;3.28;66.45
85140;BME280;75501;52.586;13.284;2024-01-30T01:35:22;102483.50;;;3.19;66.06
85140;BME280;75501;52.586;13.284;2024-01-30T01:37:51;102487.66;;;3.22;66.12
85140;BME280;75501;52.586;13.284;2024-01-30T01:40:22;102476.66;;;3.17;67.08
85140;BME280;75501;52.586;13.284;2024-01-30T01:42:53;102486.19;;;3.19;66.48
85140;BME280;75501;52.586;13.284;2024-01-30T01:45:23;102481.22;;;3.23;66.15
85140;BME280;75501;52.586;13.284;2024-01-30T01:47:51;102487.84;;;3.20;66.38
85140;BME280;75501;52.586;13.284;2024-01-30T01:50:20;102479.38;;;3.17;66.55
85140;BME280;75501;52.586;13.284;2024-01-30T01:52:51;102478.75;;;3.08;66.83
85140;BME280;75501;52.586;13.284;2024-01-30T01:55:21;102482.47;;;3.20;66.52
85140;BME280;75501;52.586;13.284;2024-01-30T01:57:53;102483.50;;;3.13;66.87
85140;BME280;75501;52.586;13.284;2024-01-30T02:00:22;102488.03;;;3.12;66.93
85140;BME280;75501;52.586;13.284;2024-01-30T02:02:51;102478.75;;;3.21;66.66
85140;BME280;75501;52.586;13.284;2024-01-30T02:05:21;102476.47;;;3.18;66.57
85140;BME280;75501;52.586;13.284;2024-01-30T02:07:51;102480.38;;;3.16;66.68
85140;BME280;75501;52.586;13.284;2024-01-30T02:10:20;102476.91;;;3.15;66.79
85140;BME280;75501;52.586;13.284;2024-01-30T02:12:49;102475.03;;;3.09;67.30
85140;BME280;75501;52.586;13.284;2024-01-30T02:15:18;102478.53;;;3.16;67.07
85140;BME280;75501;52.586;13.284;2024-01-30T02:17:47;102475.41;;;3.19;66.40
85140;BME280;75501;52.586;13.284;2024-01-30T02:20:15;102473.56;;;3.13;66.87
85140;BME280;75501;52.586;13.284;2024-01-30T02:22:45;102477.31;;;3.19;66.81
85140;BME280;75501;52.586;13.284;2024-01-30T02:25:14;102479.78;;;3.20;66.86
85140;BME280;75501;52.586;13.284;2024-01-30T02:27:42;102474.19;;;3.28;66.86
85140;BME280;75501;52.586;13.284;2024-01-30T02:30:11;102486.38;;;3.31;66.31
85140;BME280;75501;52.586;13.284;2024-01-30T02:32:39;102482.69;;;3.25;66.53
85140;BME280;75501;52.586;13.284;2024-01-30T02:35:07;102483.50;;;3.19;66.60
85140;BME280;75501;52.586;13.284;2024-01-30T02:37:36;102483.09;;;3.22;66.84
85140;BME280;75501;52.586;13.284;2024-01-30T02:40:06;102483.69;;;3.24;66.71
85140;BME280;75501;52.586;13.284;2024-01-30T02:42:35;102472.31;;;3.35;66.38
85140;BME280;75501;52.586;13.284;2024-01-30T02:45:02;102477.47;;;3.30;66.36
85140;BME280;75501;52.586;13.284;2024-01-30T02:47:31;102474.59;;;3.25;66.63
85140;BME280;75501;52.586;13.284;2024-01-30T02:49:59;102471.53;;;3.15;67.04
85140;BME280;75501;52.586;13.284;2024-01-30T02:52:27;102477.09;;;3.14;66.80
85140;BME280;75501;52.586;13.284;2024-01-30T02:54:55;102470.28;;;3.11;67.12
85140;BME280;75501;52.586;13.284;2024-01-30T02:57:25;102468.22;;;3.00;67.65
85140;BME280;75501;52.586;13.284;2024-01-30T02:59:53;102461.16;;;3.12;67.71
85140;BME280;75501;52.586;13.284;2024-01-30T03:02:21;102459.13;;;3.08;67.00
85140;BME280;75501;52.586;13.284;2024-01-30T03:04:49;102468.63;;;3.04;67.54
85140;BME280;75501;52.586;13.284;2024-01-30T03:07:17;102462.22;;;2.91;67.77
85140;BME280;75501;52.586;13.284;2024-01-30T03:09:45;102463.25;;;2.90;67.79
85140;BME280;75501;52.586;13.284;2024-01-30T03:12:14;102461.41;;;2.97;67.65
85140;BME280;75501;52.586;13.284;2024-01-30T03:14:44;102453.75;;;3.01;67.96
85140;BME280;75501;52.586;13.284;2024-01-30T03:17:12;102454.13;;;2.98;67.67
85140;BME280;75501;52.586;13.284;2024-01-30T03:19:40;102454.97;;;3.05;67.84
85140;BME280;75501;52.586;13.284;2024-01-30T03:22:08;102452.94;;;2.94;68.02
85140;BME280;75501;52.586;13.284;2024-01-30T03:24:36;102447.34;;;2.89;68.13
85140;BME280;75501;52.586;13.284;2024-01-30T03:27:05;102452.91;;;2.87;68.03
85140;BME280;75501;52.586;13.284;2024-01-30T03:29:33;102443.63;;;2.96;68.10
85140;BME280;75501;52.586;13.284;2024-01-30T03:32:03;102442.56;;;2.91;68.49
85140;BME280;75501;52.586;13.284;2024-01-30T03:34:31;102443.22;;;2.80;68.35
85140;BME280;75501;52.586;13.284;2024-01-30T03:36:59;102441.34;;;2.87;68.23
85140;BME280;75501;52.586;13.284;2024-01-30T03:39:27;102439.69;;;2.86;68.26
85140;BME280;75501;52.586;13.284;2024-01-30T03:41:55;102441.75;;;2.90;68.71
85140;BME280;75501;52.586;13.284;2024-01-30T03:44:24;102446.72;;;2.93;68.33
85140;BME280;75501;52.586;13.284;2024-01-30T03:46:52;102444.22;;;2.85;68.49
85140;BME280;75501;52.586;13.284;2024-01-30T03:49:21;102446.09;;;2.91;68.14
85140;BME280;75501;52.586;13.284;2024-01-30T03:51:49;102450.84;;;2.83;68.47
85140;BME280;75501;52.586;13.284;2024-01-30T03:54:17;102455.81;;;2.73;69.08
85140;BME280;75501;52.586;13.284;2024-01-30T03:56:45;102451.25;;;2.73;69.38
85140;BME280;75501;52.586;13.284;2024-01-30T03:59:13;102428.13;;;2.72;69.14
85140;BME280;75501;52.586;13.284;2024-01-30T04:01:41;102444.84;;;2.81;68.69
85140;BME280;75501;52.586;13.284;2024-01-30T04:04:10;102439.28;;;2.76;69.05
85140;BME280;75501;52.586;13.284;2024-01-30T04:06:39;102435.53;;;2.77;69.21
85140;BME280;75501;52.586;13.284;2024-01-30T04:09:07;102436.38;;;2.77;68.90
85140;BME280;75501;52.586;13.284;2024-01-30T04:11:35;102444.25;;;2.79;69.31
85140;BME280;75501;52.586;13.284;2024-01-30T04:14:03;102446.94;;;2.72;69.62
85140;BME280;75501;52.586;13.284;2024-01-30T04:16:31;102442.78;;;2.70;69.92
85140;BME280;75501;52.586;13.284;2024-01-30T04:19:00;102439.88;;;2.71;69.65
85140;BME280;75501;52.586;13.284;2024-01-30T04:21:28;102447.13;;;2.64;70.18
85140;BME280;75501;52.586;13.284;2024-01-30T04:23:57;102454.56;;;2.69;69.81
85140;BME280;75501;52.586;13.284;2024-01-30T04:26:26;102453.75;;;2.75;69.64
85140;BME280;75501;52.586;13.284;2024-01-30T04:28:54;102451.66;;;2.77;69.28
85140;BME280;75501;52.586;13.284;2024-01-30T04:31:22;102450.03;;;2.76;69.50
85140;BME280;75501;52.586;13.284;2024-01-30T04:33:50;102438.88;;;2.79;69.73
85140;BME280;75501;52.586;13.284;2024-01-30T04:36:19;102433.50;;;2.66;69.81
85140;BME280;75501;52.586;13.284;2024-01-30T04:38:47;102434.72;;;2.70;70.56
85140;BME280;75501;52.586;13.284;2024-01-30T04:41:16;102435.97;;;2.74;69.60
85140;BME280;75501;52.586;13.284;2024-01-30T04:43:44;102434.75;;;2.76;70.26
85140;BME280;75501;52.586;13.284;2024-01-30T04:46:13;102430.16;;;2.77;70.02
85140;BME280;75501;52.586;13.284;2024-01-30T04:48:41;102428.72;;;2.74;70.11
85140;BME280;75501;52.586;13.284;2024-01-30T04:51:09;102434.94;;;2.81;69.85
85140;BME280;75501;52.586;13.284;2024-01-30T04:53:37;102438.88;;;2.79;70.15
85140;BME280;75501;52.586;13.284;2024-01-30T04:56:07;102432.25;;;2.81;70.09
85140;BME280;75501;52.586;13.284;2024-01-30T04:58:37;102431.41;;;2.81;69.60
85140;BME280;75501;52.586;13.284;2024-01-30T05:01:05;102433.50;;;2.66;70.05
85140;BME280;75501;52.586;13.284;2024-01-30T05:03:34;102433.47;;;2.53;70.40
85140;BME280;75501;52.586;13.284;2024-01-30T05:06:02;102421.91;;;2.65;70.45
85140;BME280;75501;52.586;13.284;2024-01-30T05:08:30;102423.78;;;2.65;70.50
85140;BME280;75501;52.586;13.284;2024-01-30T05:11:00;102422.34;;;2.69;70.54
85140;BME280;75501;52.586;13.284;2024-01-30T05:13:30;102430.59;;;2.67;70.28
85140;BME280;75501;52.586;13.284;2024-01-30T05:16:02;102425.81;;;2.63;70.76
85140;BME280;75501;52.586;13.284;2024-01-30T05:18:31;102427.06;;;2.73;70.43
85140;BME280;75501;52.586;13.284;2024-01-30T05:20:59;102416.13;;;2.62;70.91
85140;BME280;75501;52.586;13.284;2024-01-30T05:23:28;102420.88;;;2.73;70.17
85140;BME280;75501;52.586;13.284;2024-01-30T05:25:56;102428.13;;;2.79;70.65
85140;BME280;75501;52.586;13.284;2024-01-30T05:28:25;102431.63;;;2.66;70.43
85140;BME280;75501;52.586;13.284;2024-01-30T05:30:54;102415.91;;;2.57;70.54
85140;BME280;75501;52.586;13.284;2024-01-30T05:33:24;102421.91;;;2.59;70.75
85140;BME280;75501;52.586;13.284;2024-01-30T05:35:53;102423.56;;;2.66;70.23
85140;BME280;75501;52.586;13.284;2024-01-30T05:38:21;102431.84;;;2.65;70.70
85140;BME280;75501;52.586;13.284;2024-01-30T05:40:50;102421.28;;;2.63;70.69
85140;BME280;75501;52.586;13.284;2024-01-30T05:43:18;102416.97;;;2.69;70.73
85140;BME280;75501;52.586;13.284;2024-01-30T05:45:46;102421.06;;;2.78;70.37
85140;BME280;75501;52.586;13.284;2024-01-30T05:48:14;102421.09;;;2.65;70.61
85140;BME280;75501;52.586;13.284;2024-01-30T05:50:44;102409.31;;;2.66;70.75
85140;BME280;75501;52.586;13.284;2024-01-30T05:53:12;102413.63;;;2.67;70.63
85140;BME280;75501;52.586;13.284;2024-01-30T05:55:41;102416.13;;;2.75;70.49
85140;BME280;75501;52.586;13.284;2024-01-30T05:58:09;102416.53;;;2.72;70.07
85140;BME280;75501;52.586;13.284;2024-01-30T06:00:37;102405.56;;;2.73;70.56
85140;BME280;75501;52.586;13.284;2024-01-30T06:03:06;102416.34;;;2.86;70.00
85140;BME280;75501;52.586;13.284;2024-01-30T06:05:35;102398.97;;;2.76;69.90
85140;BME280;75501;52.586;13.284;2024-01-30T06:08:05;102406.00;;;2.83;69.75
85140;BME280;75501;52.586;13.284;2024-01-30T06:10:34;102414.66;;;2.85;70.09
85140;BME280;75501;52.586;13.284;2024-01-30T06:13:02;102405.16;;;2.83;70.05
85140;BME280;75501;52.586;13.284;2024-01-30T06:15:32;102402.25;;;2.84;70.12
85140;BME280;75501;52.586;13.284;2024-01-30T06:18:01;102414.63;;;3.05;69.52
85140;BME280;75501;52.586;13.284;2024-01-30T06:20:29;102395.41;;;3.01;69.05
85140;BME280;75501;52.586;13.284;2024-01-30T06:22:57;102405.13;;;3.09;68.85
85140;BME280;75501;52.586;13.284;2024-01-30T06:25:27;102419.81;;;3.13;68.73
85140;BME280;75501;52.586;13.284;2024-01-30T06:27:55;102411.56;;;3.08;69.02
85140;BME280;75501;52.586;13.284;2024-01-30T06:30:23;102415.28;;;2.87;69.49
85140;BME280;75501;52.586;13.284;2024-01-30T06:32:51;102409.91;;;2.94;69.09
85140;BME280;75501;52.586;13.284;2024-01-30T06:35:20;102410.72;;;2.94;69.24
85140;BME280;75501;52.586;13.284;2024-01-30T06:37:48;102417.97;;;3.00;68.88
85140;BME280;75501;52.586;13.284;2024-01-30T06:40:18;102418.16;;;2.99;69.11
85140;BME280;75501;52.586;13.284;2024-01-30T06:42:48;102415.69;;;2.91;69.72
85140;BME280;75501;52.586;13.284;2024-01-30T06:45:17;102396.88;;;2.97;69.22
85140;BME280;75501;52.586;13.284;2024-01-30T06:47:45;102409.06;;;3.00;68.87
85140;BME280;75501;52.586;13.284;2024-01-30T06:50:13;102413.59;;;3.06;69.04
85140;BME280;75501;52.586;13.284;2024-01-30T06:52:42;102405.75;;;3.11;68.52
85140;BME280;75501;52.586;13.284;2024-01-30T06:55:10;102407.41;;;3.06;68.60
85140;BME280;75501;52.586;13.284;2024-01-30T06:57:38;102414.44;;;3.00;68.96
85140;BME280;75501;52.586;13.284;2024-01-30T07:00:09;102395.41;;;3.01;68.95
85140;BME280;75501;52.586;13.284;2024-01-30T07:02:37;102409.25;;;3.05;68.71
85140;BME280;75501;52.586;13.284;2024-01-30T07:05:06;102409.06;;;3.00;68.84
85140;BME280;75501;52.586;13.284;2024-01-30T07:07:35;102412.38;;;3.15;68.70
85140;BME280;75501;52.586;13.284;2024-01-30T07:10:04;102409.03;;;3.20;68.37
85140;BME280;75501;52.586;13.284;2024-01-30T07:12:33;102410.66;;;3.27;68.21
85140;BME280;75501;52.586;13.284;2024-01-30T07:15:01;102403.22;;;3.29;67.93
85140;BME280;75501;52.586;13.284;2024-01-30T07:17:31;102408.75;;;3.41;67.73
85140;BME280;75501;52.586;13.284;2024-01-30T07:19:59;102397.16;;;3.54;67.17
85140;BME280;75501;52.586;13.284;2024-01-30T07:22:27;102402.28;;;3.55;66.27
85140;BME280;75501;52.586;13.284;2024-01-30T07:24:56;102398.97;;;3.60;66.93
85140;BME280;75501;52.586;13.284;2024-01-30T07:27:24;102399.56;;;3.62;66.84
85140;BME280;75501;52.586;13.284;2024-01-30T07:29:52;102389.41;;;3.70;66.56
85140;BME280;75501;52.586;13.284;2024-01-30T07:32:20;102395.19;;;3.74;66.41
85140;BME280;75501;52.586;13.284;2024-01-30T07:34:49;102397.28;;;3.72;66.35
85140;BME280;75501;52.586;13.284;2024-01-30T07:37:32;102395.97;;;3.81;66.59
85140;BME280;75501;52.586;13.284;2024-01-30T07:40:01;102390.50;;;3.94;65.90
85140;BME280;75501;52.586;13.284;2024-01-30T07:42:31;102400.72;;;3.85;65.77
85140;BME280;75501;52.586;13.284;2024-01-30T07:44:59;102401.91;;;3.96;65.67
85140;BME280;75501;52.586;13.284;2024-01-30T07:47:28;102387.56;;;4.02;65.49
85140;BME280;75501;52.586;13.284;2024-01-30T07:49:57;102397.03;;;4.11;64.91
85140;BME280;75501;52.586;13.284;2024-01-30T07:52:26;102394.97;;;4.13;64.70
85140;BME280;75501;52.586;13.284;2024-01-30T07:54:54;102392.88;;;4.15;64.91
85140;BME280;75501;52.586;13.284;2024-01-30T07:57:23;102403.91;;;4.38;64.33
85140;BME280;75501;52.586;13.284;2024-01-30T07:59:51;102390.66;;;4.37;64.33
85140;BME280;75501;52.586;13.284;2024-01-30T08:02:19;102405.91;;;4.18;64.76
85140;BME280;75501;52.586;13.284;2024-01-30T08:04:47;102403.53;;;4.35;64.50
85140;BME280;75501;52.586;13.284;2024-01-30T08:07:17;102392.13;;;4.33;64.09
85140;BME280;75501;52.586;13.284;2024-01-30T08:09:46;102399.38;;;4.32;64.30
85140;BME280;75501;52.586;13.284;2024-01-30T08:12:14;102407.53;;;4.50;63.64
85140;BME280;75501;52.586;13.284;2024-01-30T08:14:42;102401.72;;;4.53;63.50
85140;BME280;75501;52.586;13.284;2024-01-30T08:17:10;102401.50;;;4.55;62.97
85140;BME280;75501;52.586;13.284;2024-01-30T08:19:38;102397.13;;;4.29;63.90
85140;BME280;75501;52.586;13.284;2024-01-30T08:22:06;102396.94;;;4.31;63.79
85140;BME280;75501;52.586;13.284;2024-01-30T08:24:36;102402.06;;;4.39;63.78
85140;BME280;75501;52.586;13.284;2024-01-30T08:27:04;102405.09;;;4.49;63.67
85140;BME280;75501;52.586;13.284;2024-01-30T08:29:33;102398.53;;;4.63;62.75
85140;BME280;75501;52.586;13.284;2024-01-30T08:32:01;102388.28;;;4.72;62.68
85140;BME280;75501;52.586;13.284;2024-01-30T08:34:29;102396.09;;;4.80;62.74
85140;BME280;75501;52.586;13.284;2024-01-30T08:36:58;102400.53;;;4.92;62.39
85140;BME280;75501;52.586;13.284;2024-01-30T08:39:26;102398.91;;;4.91;62.02
85140;BME280;75501;52.586;13.284;2024-01-30T08:41:55;102392.69;;;4.91;61.97
85140;BME280;75501;52.586;13.284;2024-01-30T08:44:24;102395.38;;;4.91;61.90
85140;BME280;75501;52.586;13.284;2024-01-30T08:46:53;102396.28;;;4.85;62.19
85140;BME280;75501;52.586;13.284;2024-01-30T08:49:23;102389.41;;;5.07;61.74
85140;BME280;75501;52.586;13.284;2024-01-30T08:51:51;102385.75;;;5.01;61.65
85140;BME280;75501;52.586;13.284;2024-01-30T08:54:19;102390.78;;;5.16;61.17
85140;BME280;75501;52.586;13.284;2024-01-30T08:56:47;102387.19;;;5.22;61.17
85140;BME280;75501;52.586;13.284;2024-01-30T08:59:17;102384.28;;;5.42;60.48
85140;BME280;75501;52.586;13.284;2024-01-30T09:01:45;102382.69;;;5.53;60.05
85140;BME280;75501;52.586;13.284;2024-01-30T09:04:29;102383.28;;;5.55;60.03
85140;BME280;75501;52.586;13.284;2024-01-30T09:06:57;102380.41;;;5.49;59.82
85140;BME280;75501;52.586;13.284;2024-01-30T09:09:25;102378.91;;;5.72;59.31
85140;BME280;75501;52.586;13.284;2024-01-30T09:11:53;102376.44;;;5.70;59.54
85140;BME280;75501;52.586;13.284;2024-01-30T09:14:23;102385.50;;;5.76;59.42
85140;BME280;75501;52.586;13.284;2024-01-30T09:16:51;102369.13;;;5.89;59.03
85140;BME280;75501;52.586;13.284;2024-01-30T09:19:19;102378.13;;;6.01;58.18
85140;BME280;75501;52.586;13.284;2024-01-30T09:21:47;102380.56;;;5.91;58.60
85140;BME280;75501;52.586;13.284;2024-01-30T09:24:15;102376.50;;;6.12;57.81
85140;BME280;75501;52.586;13.284;2024-01-30T09:26:43;102386.22;;;5.83;58.69
85140;BME280;75501;52.586;13.284;2024-01-30T09:29:12;102374.75;;;6.17;57.60
85140;BME280;75501;52.586;13.284;2024-01-30T09:31:42;102380.56;;;6.32;57.10
85140;BME280;75501;52.586;13.284;2024-01-30T09:34:11;102382.94;;;6.40;56.98
85140;BME280;75501;52.586;13.284;2024-01-30T09:36:39;102385.28;;;6.48;57.09
85140;BME280;75501;52.586;13.284;2024-01-30T09:39:07;102387.97;;;6.48;56.38
85140;BME280;75501;52.586;13.284;2024-01-30T09:41:40;102385.03;;;6.38;57.15
85140;BME280;75501;52.586;13.284;2024-01-30T09:44:16;102382.72;;;6.54;55.88
85140;BME280;75501;52.586;13.284;2024-01-30T09:46:49;102380.38;;;6.69;55.73
85140;BME280;75501;52.586;13.284;2024-01-30T09:49:19;102379.91;;;6.72;55.68
85140;BME280;75501;52.586;13.284;2024-01-30T09:51:51;102380.47;;;7.09;54.54
85140;BME280;75501;52.586;13.284;2024-01-30T09:54:20;102379.44;;;6.98;54.29
85140;BME280;75501;52.586;13.284;2024-01-30T09:56:49;102377.19;;;7.07;54.42
85140;BME280;75501;52.586;13.284;2024-01-30T09:59:17;102361.56;;;6.97;53.99
85140;BME280;75501;52.586;13.284;2024-01-30T10:01:45;102371.19;;;7.16;53.70
85140;BME280;75501;52.586;13.284;2024-01-30T10:04:15;102368.25;;;7.06;54.17
85140;BME280;75501;52.586;13.284;2024-01-30T10:06:43;102368.16;;;7.01;53.60
85140;BME280;75501;52.586;13.284;2024-01-30T10:09:11;102365.19;;;7.14;53.78
85140;BME280;75501;52.586;13.284;2024-01-30T10:11:39;102374.63;;;7.00;53.60
85140;BME280;75501;52.586;13.284;2024-01-30T10:14:07;102367.31;;;6.89;54.11
85140;BME280;75501;52.586;13.284;2024-01-30T10:16:36;102360.97;;;6.95;53.56
85140;BME280;75501;52.586;13.284;2024-01-30T10:19:04;102366.38;;;7.18;52.96
85140;BME280;75501;52.586;13.284;2024-01-30T10:21:34;102362.34;;;7.21;53.04
85140;BME280;75501;52.586;13.284;2024-01-30T10:24:03;102359.41;;;7.22;53.04
85140;BME280;75501;52.586;13.284;2024-01-30T10:26:32;102366.13;;;7.20;52.69
85140;BME280;75501;52.586;13.284;2024-01-30T10:29:01;102358.88;;;7.37;52.00
85140;BME280;75501;52.586;13.284;2024-01-30T10:31:29;102356.31;;;7.30;51.62
85140;BME280;75501;52.586;13.284;2024-01-30T10:33:57;102355.28;;;7.20;51.63
85140;BME280;75501;52.586;13.284;2024-01-30T10:36:46;102355.53;;;7.07;52.55
85140;BME280;75501;52.586;13.284;2024-01-30T10:39:17;102354.84;;;7.11;52.42
85140;BME280;75501;52.586;13.284;2024-01-30T10:41:49;102354.00;;;7.22;51.95
85140;BME280;75501;52.586;13.284;2024-01-30T10:44:22;102355.50;;;7.30;51.60
85140;BME280;75501;52.586;13.284;2024-01-30T10:46:56;102358.81;;;7.32;51.52
85140;BME280;75501;52.586;13.284;2024-01-30T10:49:31;102358.81;;;7.32;51.19
85140;BME280;75501;52.586;13.284;2024-01-30T10:52:01;102353.28;;;7.27;51.95
85140;BME280;75501;52.586;13.284;2024-01-30T10:54:33;102342.34;;;7.62;50.60
85140;BME280;75501;52.586;13.284;2024-01-30T10:57:04;102350.94;;;7.87;50.38
85140;BME280;75501;52.586;13.284;2024-01-30T10:59:33;102351.16;;;7.97;49.38
85140;BME280;75501;52.586;13.284;2024-01-30T11:02:02;102347.38;;;7.98;49.61
85140;BME280;75501;52.586;13.284;2024-01-30T11:04:36;102359.38;;;8.19;49.21
85140;BME280;75501;52.586;13.284;2024-01-30T11:07:15;102352.50;;;8.28;49.17
85140;BME280;75501;52.586;13.284;2024-01-30T11:09:50;102353.69;;;8.48;48.24
85140;BME280;75501;52.586;13.284;2024-01-30T11:12:22;102347.09;;;8.61;48.02
85140;BME280;75501;52.586;13.284;2024-01-30T11:15:02;102347.88;;;8.57;47.93
85140;BME280;75501;52.586;13.284;2024-01-30T11:17:45;102345.81;;;8.64;48.02
85140;BME280;75501;52.586;13.284;2024-01-30T11:20:20;102334.78;;;8.70;47.79
85140;BME280;75501;52.586;13.284;2024-01-30T11:22:53;102346.19;;;8.72;47.78
85140;BME280;75501;52.586;13.284;2024-01-30T11:25:25;102346.31;;;8.61;47.84
85140;BME280;75501;52.586;13.284;2024-01-30T11:27:55;102342.06;;;8.20;48.68
85140;BME280;75501;52.586;13.284;2024-01-30T11:30:24;102340.06;;;8.60;48.11
85140;BME280;75501;52.586;13.284;2024-01-30T11:33:04;102344.06;;;8.58;48.29
85140;BME280;75501;52.586;13.284;2024-01-30T11:35:36;102341.34;;;8.74;47.90
85140;BME280;75501;52.586;13.284;2024-01-30T11:38:09;102348.75;;;8.62;48.50
85140;BME280;75501;52.586;13.284;2024-01-30T11:40:39;102340.88;;;8.61;48.17
85140;BME280;75501;52.586;13.284;2024-01-30T11:43:08;102332.53;;;8.84;47.90
85140;BME280;75501;52.586;13.284;2024-01-30T11:45:37;102337.56;;;8.75;48.08
85140;BME280;75501;52.586;13.284;2024-01-30T11:48:07;102335.78;;;8.47;48.55
85140;BME280;75501;52.586;13.284;2024-01-30T11:50:38;102330.84;;;8.44;49.05
85140;BME280;75501;52.586;13.284;2024-01-30T11:53:09;102332.00;;;8.48;48.64
85140;BME280;75501;52.586;13.284;2024-01-30T11:55:40;102328.22;;;8.49;48.89
85140;BME280;75501;52.586;13.284;2024-01-30T11:58:10;102324.59;;;8.61;48.43
85140;BME280;75501;52.586;13.284;2024-01-30T12:00:38;102317.28;;;8.99;47.82
85140;BME280;75501;52.586;13.284;2024-01-30T12:03:06;102322.31;;;8.91;47.30
85140;BME280;75501;52.586;13.284;2024-01-30T12:05:34;102322.41;;;8.96;47.34
85140;BME280;75501;52.586;13.284;2024-01-30T12:08:03;102308.19;;;8.89;48.03
85140;BME280;75501;52.586;13.284;2024-01-30T12:10:36;102301.19;;;9.36;47.04
85140;BME280;75501;52.586;13.284;2024-01-30T12:13:05;102301.66;;;9.07;47.16
85140;BME280;75501;52.586;13.284;2024-01-30T12:15:33;102300.31;;;9.09;47.23
85140;BME280;75501;52.586;13.284;2024-01-30T12:18:05;102299.50;;;9.30;47.08
85140;BME280;75501;52.586;13.284;2024-01-30T12:20:35;102296.34;;;9.38;46.92
85140;BME280;75501;52.586;13.284;2024-01-30T12:23:03;102291.06;;;9.32;47.47
85140;BME280;75501;52.586;13.284;2024-01-30T12:25:33;102279.41;;;9.31;46.89
85140;BME280;75501;52.586;13.284;2024-01-30T12:28:02;102282.91;;;9.32;46.84
85140;BME280;75501;52.586;13.284;2024-01-30T12:30:30;102275.88;;;9.09;48.04
85140;BME280;75501;52.586;13.284;2024-01-30T12:33:00;102277.53;;;9.59;46.90
85140;BME280;75501;52.586;13.284;2024-01-30T12:35:28;102274.53;;;9.12;47.38
85140;BME280;75501;52.586;13.284;2024-01-30T12:37:59;102273.84;;;8.78;48.62
85140;BME280;75501;52.586;13.284;2024-01-30T12:40:28;102262.75;;;9.01;48.63
85140;BME280;75501;52.586;13.284;2024-01-30T12:42:58;102256.69;;;9.42;47.31
85140;BME280;75501;52.586;13.284;2024-01-30T12:45:26;102268.09;;;9.18;47.63
85140;BME280;75501;52.586;13.284;2024-01-30T12:47:54;102259.06;;;9.12;48.06
85140;BME280;75501;52.586;13.284;2024-01-30T12:50:22;102258.06;;;9.18;47.75
85140;BME280;75501;52.586;13.284;2024-01-30T12:52:50;102262.38;;;8.92;48.71
85140;BME280;75501;52.586;13.284;2024-01-30T12:55:18;102253.91;;;8.89;48.54
85140;BME280;75501;52.586;13.284;2024-01-30T12:57:47;102251.88;;;9.01;48.34
85140;BME280;75501;52.586;13.284;2024-01-30T13:00:16;102249.97;;;9.23;48.43